createdAt,value
2018-02-24T00:02:23.701Z,15.70
2018-02-24T00:04:51.257Z,14.17
2018-02-24T00:07:18.822Z,12.70
2018-02-24T00:09:46.577Z,13.47
2018-02-24T00:12:14.137Z,14.83
2018-02-24T00:14:41.756Z,15.13
2018-02-24T00:17:09.318Z,13.97
2018-02-24T00:19:36.914Z,15.37
2018-02-24T00:22:04.560Z,12.47
2018-02-24T00:24:32.894Z,14.00
2018-02-24T00:27:00.502Z,13.80
2018-02-24T00:29:29.100Z,13.77
2018-02-24T00:31:56.676Z,11.93
2018-02-24T00:34:24.396Z,13.30
2018-02-24T00:36:52.743Z,13.30
2018-02-24T00:39:20.338Z,14.00
2018-02-24T00:41:48.684Z,13.87
2018-02-24T00:44:16.288Z,14.20
2018-02-24T00:46:43.918Z,14.13
2018-02-24T00:49:11.515Z,13.27
2018-02-24T00:51:39.119Z,13.50
2018-02-24T00:54:06.709Z,14.80
2018-02-24T00:56:35.115Z,12.67
2018-02-24T00:59:02.677Z,13.77
2018-02-24T01:01:30.278Z,12.50
2018-02-24T01:03:57.865Z,13.80
2018-02-24T01:06:26.251Z,12.40
2018-02-24T01:08:54.604Z,13.83
2018-02-24T01:11:22.446Z,11.80
2018-02-24T01:13:50.057Z,12.50
2018-02-24T01:16:17.754Z,12.80
2018-02-24T01:18:45.361Z,15.13
2018-02-24T01:21:13.709Z,13.37
2018-02-24T01:23:41.277Z,13.97
2018-02-24T01:26:10.400Z,13.10
2018-02-24T01:28:38.756Z,14.40
2018-02-24T01:31:06.385Z,13.37
2018-02-24T01:33:34.015Z,12.80
2018-02-24T01:36:01.590Z,12.50
2018-02-24T01:38:29.205Z,13.80
2018-02-24T01:40:57.537Z,14.07
2018-02-24T01:43:25.123Z,13.20
2018-02-24T01:45:54.262Z,13.30
2018-02-24T01:48:21.843Z,14.60
2018-02-24T01:50:49.414Z,13.07
2018-02-24T01:53:17.095Z,14.20
2018-02-24T01:55:44.666Z,15.37
2018-02-24T01:58:12.282Z,13.17
2018-02-24T02:00:40.105Z,15.70
2018-02-24T02:03:08.451Z,13.60
2018-02-24T02:05:36.019Z,12.83
2018-02-24T02:08:03.649Z,15.10
2018-02-24T02:10:31.298Z,13.20
2018-02-24T02:12:58.904Z,14.53
2018-02-24T02:15:26.488Z,14.13
2018-02-24T02:17:54.847Z,15.10
2018-02-24T02:20:22.565Z,14.93
2018-02-24T02:22:50.124Z,13.90
2018-02-24T02:25:17.704Z,14.70
2018-02-24T02:27:45.298Z,14.50
2018-02-24T02:30:13.640Z,13.80
2018-02-24T02:32:41.242Z,14.70
2018-02-24T02:35:09.612Z,14.60
2018-02-24T02:37:37.974Z,15.23
2018-02-24T02:40:05.550Z,14.87
2018-02-24T02:42:33.925Z,14.30
2018-02-24T02:45:02.653Z,14.80
2018-02-24T02:47:30.236Z,13.80
2018-02-24T02:49:57.838Z,14.10
2018-02-24T02:52:28.379Z,15.07
2018-02-24T02:54:56.062Z,15.00
2018-02-24T02:57:23.631Z,15.00
2018-02-24T02:59:51.242Z,14.27
2018-02-24T03:02:19.788Z,14.60
2018-02-24T03:04:47.385Z,15.03
2018-02-24T03:07:15.765Z,16.33
2018-02-24T03:09:44.532Z,14.07
2018-02-24T03:12:13.612Z,17.30
2018-02-24T03:14:41.184Z,14.70
2018-02-24T03:17:08.822Z,15.30
2018-02-24T03:19:36.411Z,15.83
2018-02-24T03:22:04.747Z,15.00
2018-02-24T03:24:32.348Z,15.53
2018-02-24T03:27:00.702Z,16.17
2018-02-24T03:29:28.290Z,16.07
2018-02-24T03:31:56.665Z,16.67
2018-02-24T03:34:25.012Z,15.90
2018-02-24T03:36:52.584Z,15.50
2018-02-24T03:39:20.204Z,16.90
2018-02-24T03:41:47.778Z,15.33
2018-02-24T03:44:15.342Z,14.03
2018-02-24T03:46:42.946Z,15.30
2018-02-24T03:49:11.288Z,15.10
2018-02-24T03:51:38.881Z,15.60
2018-02-24T03:54:07.258Z,14.90
2018-02-24T03:56:35.600Z,14.60
2018-02-24T03:59:03.322Z,13.90
2018-02-24T04:01:31.016Z,14.37
2018-02-24T04:03:58.636Z,14.53
2018-02-24T04:06:26.463Z,15.93
2018-02-24T04:08:54.828Z,16.60
2018-02-24T04:11:22.420Z,15.93
2018-02-24T04:13:50.831Z,16.40
2018-02-24T04:16:18.419Z,14.00
2018-02-24T04:18:46.018Z,15.77
2018-02-24T04:21:14.396Z,15.00
2018-02-24T04:23:42.721Z,16.17
2018-02-24T04:26:10.298Z,15.00
2018-02-24T04:28:37.915Z,15.93
2018-02-24T04:31:05.586Z,15.67
2018-02-24T04:33:34.064Z,15.43
2018-02-24T04:36:01.671Z,16.93
2018-02-24T04:38:29.249Z,15.20
2018-02-24T04:40:57.589Z,15.10
2018-02-24T04:43:25.214Z,15.33
2018-02-24T04:45:52.784Z,16.13
2018-02-24T04:48:20.374Z,15.47
2018-02-24T04:50:47.996Z,17.20
2018-02-24T04:53:15.569Z,14.53
2018-02-24T04:55:43.137Z,15.80
2018-02-24T04:58:10.780Z,16.93
2018-02-24T05:00:38.337Z,16.30
2018-02-24T05:03:05.915Z,16.70
2018-02-24T05:05:33.540Z,17.30
2018-02-24T05:08:01.097Z,16.43
2018-02-24T05:10:28.660Z,17.97
2018-02-24T05:12:56.269Z,16.70
2018-02-24T05:15:23.880Z,15.13
2018-02-24T05:17:51.456Z,16.23
2018-02-24T05:20:19.062Z,15.13
2018-02-24T05:22:46.641Z,16.03
2018-02-24T05:25:15.001Z,15.03
2018-02-24T05:27:42.699Z,15.63
2018-02-24T05:30:10.277Z,15.67
2018-02-24T05:32:37.864Z,14.53
2018-02-24T05:35:06.982Z,16.40
2018-02-24T05:37:35.335Z,15.30
2018-02-24T05:40:02.904Z,15.47
2018-02-24T05:42:30.532Z,15.23
2018-02-24T05:44:58.098Z,16.40
2018-02-24T05:47:25.698Z,15.90
2018-02-24T05:49:54.045Z,14.57
2018-02-24T05:52:21.610Z,15.00
2018-02-24T05:54:50.744Z,15.10
2018-02-24T05:57:18.328Z,15.17
2018-02-24T05:59:45.928Z,14.47
2018-02-24T06:02:13.534Z,15.17
2018-02-24T06:04:41.155Z,13.93
2018-02-24T06:07:08.722Z,14.37
2018-02-24T06:09:37.077Z,14.77
2018-02-24T06:12:04.634Z,14.50
2018-02-24T06:14:32.208Z,15.27
2018-02-24T06:16:59.836Z,16.40
2018-02-24T06:19:27.407Z,14.70
2018-02-24T06:21:54.984Z,14.93
2018-02-24T06:24:22.588Z,15.43
2018-02-24T06:26:50.186Z,14.93
2018-02-24T06:29:17.814Z,16.77
2018-02-24T06:31:45.398Z,17.30
2018-02-24T06:34:13.073Z,14.93
2018-02-24T06:36:40.605Z,14.40
2018-02-24T06:39:08.186Z,14.43
2018-02-24T06:41:35.819Z,15.27
2018-02-24T06:44:03.422Z,15.37
2018-02-24T06:46:30.992Z,13.80
2018-02-24T06:48:59.375Z,14.47
2018-02-24T06:51:27.712Z,15.60
2018-02-24T06:53:55.277Z,14.57
2018-02-24T06:56:22.872Z,14.43
2018-02-24T06:58:51.195Z,13.93
2018-02-24T07:01:18.767Z,12.50
2018-02-24T07:03:46.541Z,14.10
2018-02-24T07:06:14.097Z,13.50
2018-02-24T07:08:41.665Z,13.63
2018-02-24T07:11:09.286Z,13.30
2018-02-24T07:13:37.372Z,13.67
2018-02-24T07:16:04.952Z,13.73
2018-02-24T07:18:32.555Z,13.43
2018-02-24T07:21:00.147Z,14.80
2018-02-24T07:23:28.029Z,14.23
2018-02-24T07:25:55.616Z,13.60
2018-02-24T07:28:23.215Z,14.20
2018-02-24T07:30:50.853Z,15.33
2018-02-24T07:33:18.492Z,14.00
2018-02-24T07:35:46.859Z,13.90
2018-02-24T07:38:15.208Z,15.03
2018-02-24T07:40:42.849Z,13.30
2018-02-24T07:43:10.410Z,13.40
2018-02-24T07:45:37.987Z,12.60
2018-02-24T07:48:05.635Z,13.33
2018-02-24T07:50:33.213Z,13.13
2018-02-24T07:53:00.784Z,15.07
2018-02-24T07:55:28.894Z,14.10
2018-02-24T07:57:56.450Z,13.67
2018-02-24T08:00:24.771Z,12.50
2018-02-24T08:02:52.418Z,12.83
2018-02-24T08:05:19.988Z,12.67
2018-02-24T08:07:47.573Z,13.33
2018-02-24T08:10:15.184Z,12.53
2018-02-24T08:12:42.759Z,13.70
2018-02-24T08:15:10.324Z,12.57
2018-02-24T08:17:37.956Z,12.70
2018-02-24T08:20:05.543Z,15.93
2018-02-24T08:22:33.109Z,13.47
2018-02-24T08:25:00.714Z,11.93
2018-02-24T08:27:29.120Z,11.90
2018-02-24T08:29:56.684Z,10.90
2018-02-24T08:32:24.295Z,12.53
2018-02-24T08:34:52.899Z,11.17
2018-02-24T08:37:20.453Z,12.10
2018-02-24T08:39:48.822Z,9.50
2018-02-24T08:42:17.153Z,9.10
2018-02-24T08:44:44.731Z,11.00
2018-02-24T08:47:12.459Z,12.40
2018-02-24T08:49:40.031Z,10.90
2018-02-24T08:52:08.029Z,9.90
2018-02-24T08:54:37.347Z,8.47
2018-02-24T08:57:05.705Z,8.67
2018-02-24T08:59:34.810Z,11.03
2018-02-24T09:02:03.361Z,10.40
2018-02-24T09:04:30.950Z,9.97
2018-02-24T09:06:59.299Z,10.40
2018-02-24T09:09:26.976Z,8.30
2018-02-24T09:11:56.465Z,10.03
2018-02-24T09:14:24.038Z,9.37
2018-02-24T09:16:51.648Z,10.50
2018-02-24T09:19:19.220Z,10.40
2018-02-24T09:21:46.827Z,9.73
2018-02-24T09:24:15.162Z,10.60
2018-02-24T09:26:42.736Z,9.40
2018-02-24T09:29:10.348Z,10.40
2018-02-24T09:31:37.919Z,9.83
2018-02-24T09:34:05.509Z,10.00
2018-02-24T09:36:33.136Z,9.67
2018-02-24T09:39:01.244Z,9.10
2018-02-24T09:41:28.835Z,6.73
2018-02-24T09:43:57.240Z,8.90
2018-02-24T09:46:24.807Z,8.27
2018-02-24T09:48:52.458Z,9.23
2018-02-24T09:51:20.543Z,8.20
2018-02-24T09:53:48.100Z,9.70
2018-02-24T09:56:15.665Z,9.00
2018-02-24T09:58:43.312Z,7.40
2018-02-24T10:01:11.639Z,9.00
2018-02-24T10:03:39.217Z,8.50
2018-02-24T10:06:07.967Z,7.73
2018-02-24T10:08:35.538Z,7.97
2018-02-24T10:11:03.111Z,8.87
2018-02-24T10:13:32.228Z,9.87
2018-02-24T10:16:00.566Z,8.27
2018-02-24T10:18:28.151Z,7.40
2018-02-24T10:20:56.569Z,8.23
2018-02-24T10:23:24.790Z,8.93
2018-02-24T10:25:52.400Z,9.83
2018-02-24T10:28:20.037Z,9.07
2018-02-24T10:30:48.791Z,9.57
2018-02-24T10:33:16.358Z,8.40
2018-02-24T10:35:45.078Z,8.10
2018-02-24T10:38:12.685Z,8.77
2018-02-24T10:40:40.252Z,6.43
2018-02-24T10:43:07.819Z,6.10
2018-02-24T10:45:36.114Z,6.90
2018-02-24T10:48:04.438Z,5.30
2018-02-24T10:50:31.993Z,6.50
2018-02-24T10:52:59.855Z,5.80
2018-02-24T10:55:27.440Z,7.13
2018-02-24T10:57:55.000Z,6.00
2018-02-24T11:00:22.616Z,6.33
2018-02-24T11:02:50.213Z,5.73
2018-02-24T11:05:17.817Z,6.17
2018-02-24T11:07:46.154Z,5.70
2018-02-24T11:10:13.751Z,6.23
2018-02-24T11:12:41.445Z,5.80
2018-02-24T11:15:09.464Z,5.93
2018-02-24T11:17:37.035Z,5.87
2018-02-24T11:20:05.389Z,6.00
2018-02-24T11:22:34.504Z,5.93
2018-02-24T11:25:02.822Z,6.30
2018-02-24T11:27:30.383Z,6.60
2018-02-24T11:29:58.024Z,5.53
2018-02-24T11:32:25.575Z,5.60
2018-02-24T11:34:53.134Z,6.10
2018-02-24T11:37:20.739Z,4.97
2018-02-24T11:39:48.309Z,6.10
2018-02-24T11:42:15.874Z,6.00
2018-02-24T11:44:45.009Z,5.90
2018-02-24T11:47:12.573Z,5.43
2018-02-24T11:49:40.137Z,5.73
2018-02-24T11:52:07.983Z,5.70
2018-02-24T11:54:36.314Z,6.60
2018-02-24T11:57:03.884Z,5.30
2018-02-24T11:59:31.609Z,5.83
2018-02-24T12:01:59.159Z,6.00
2018-02-24T12:04:26.728Z,5.70
2018-02-24T12:06:54.760Z,6.47
2018-02-24T12:09:23.165Z,5.90
2018-02-24T12:11:50.699Z,6.10
2018-02-24T12:14:19.056Z,6.63
2018-02-24T12:16:47.457Z,5.60
2018-02-24T12:19:15.804Z,5.77
2018-02-24T12:21:44.579Z,4.80
2018-02-24T12:24:12.211Z,5.70
2018-02-24T12:26:39.770Z,5.57
2018-02-24T12:29:07.369Z,5.20
2018-02-24T12:31:35.740Z,5.10
2018-02-24T12:34:03.319Z,5.07
2018-02-24T12:36:30.919Z,4.13
2018-02-24T12:38:58.534Z,5.17
2018-02-24T12:41:26.133Z,5.20
2018-02-24T12:43:53.723Z,3.93
2018-02-24T12:46:21.585Z,5.10
2018-02-24T12:48:49.152Z,4.63
2018-02-24T12:51:16.721Z,5.33
2018-02-24T12:53:44.317Z,4.83
2018-02-24T12:56:11.891Z,5.60
2018-02-24T12:58:39.502Z,4.40
2018-02-24T13:01:10.766Z,4.17
2018-02-24T13:03:39.125Z,4.73
2018-02-24T13:06:08.212Z,5.83
2018-02-24T13:08:35.797Z,4.87
2018-02-24T13:11:04.419Z,5.90
2018-02-24T13:13:31.981Z,5.63
2018-02-24T13:15:59.538Z,6.00
2018-02-24T13:18:27.183Z,5.80
2018-02-24T13:20:54.789Z,6.20
2018-02-24T13:23:22.346Z,5.90
2018-02-24T13:25:50.244Z,6.07
2018-02-24T13:28:18.575Z,5.77
2018-02-24T13:30:46.222Z,5.70
2018-02-24T13:33:13.810Z,5.83
2018-02-24T13:35:41.384Z,6.57
2018-02-24T13:38:08.959Z,5.20
2018-02-24T13:40:37.327Z,4.60
2018-02-24T13:43:05.698Z,5.10
2018-02-24T13:45:33.254Z,5.23
2018-02-24T13:48:00.825Z,6.00
2018-02-24T13:50:29.194Z,5.97
2018-02-24T13:52:56.753Z,4.30
2018-02-24T13:55:25.305Z,5.40
2018-02-24T13:57:53.184Z,4.30
2018-02-24T14:00:20.774Z,5.93
2018-02-24T14:02:49.121Z,5.30
2018-02-24T14:05:17.157Z,4.93
2018-02-24T14:07:44.731Z,6.00
2018-02-24T14:10:12.286Z,5.10
2018-02-24T14:12:39.888Z,4.77
2018-02-24T14:15:08.222Z,5.80
2018-02-24T14:17:35.822Z,5.40
2018-02-24T14:20:04.254Z,4.63
2018-02-24T14:22:31.865Z,5.60
2018-02-24T14:25:00.223Z,5.23
2018-02-24T14:27:27.779Z,4.27
2018-02-24T14:29:55.370Z,5.40
2018-02-24T14:32:23.713Z,5.80
2018-02-24T14:34:51.269Z,5.37
2018-02-24T14:37:18.899Z,5.93
2018-02-24T14:39:46.462Z,5.17
2018-02-24T14:42:14.121Z,5.80
2018-02-24T14:44:41.725Z,5.70
2018-02-24T14:47:10.112Z,5.90
2018-02-24T14:49:37.663Z,4.40
2018-02-24T14:52:06.804Z,5.20
2018-02-24T14:54:34.370Z,4.43
2018-02-24T14:57:01.981Z,3.67
2018-02-24T14:59:29.545Z,3.60
2018-02-24T15:01:57.939Z,3.90
2018-02-24T15:04:26.276Z,4.60
2018-02-24T15:06:53.844Z,3.93
2018-02-24T15:09:21.451Z,4.00
2018-02-24T15:11:49.000Z,4.03
2018-02-24T15:14:16.562Z,4.17
2018-02-24T15:16:44.149Z,5.20
2018-02-24T15:19:11.713Z,4.37
2018-02-24T15:21:39.328Z,4.80
2018-02-24T15:24:07.693Z,4.10
2018-02-24T15:26:36.025Z,3.63
2018-02-24T15:29:03.585Z,4.17
2018-02-24T15:31:31.172Z,4.17
2018-02-24T15:33:58.734Z,4.10
2018-02-24T15:36:26.300Z,7.20
2018-02-24T15:38:54.161Z,8.20
2018-02-24T15:41:21.702Z,5.17
2018-02-24T15:43:49.258Z,5.33
2018-02-24T15:46:17.106Z,4.60
2018-02-24T15:48:44.679Z,4.20
2018-02-24T15:51:12.230Z,3.60
2018-02-24T15:53:41.482Z,3.87
2018-02-24T15:56:09.800Z,3.80
2018-02-24T15:58:37.477Z,3.67
2018-02-24T16:01:05.482Z,3.30
2018-02-24T16:03:33.800Z,2.97
2018-02-24T16:06:01.410Z,2.83
2018-02-24T16:08:30.054Z,2.67
2018-02-24T16:10:57.619Z,2.83
2018-02-24T16:13:25.230Z,2.57
2018-02-24T16:15:53.597Z,2.60
2018-02-24T16:18:22.163Z,2.90
2018-02-24T16:20:51.074Z,2.67
2018-02-24T16:23:20.274Z,1.93
2018-02-24T16:25:48.591Z,2.97
2018-02-24T16:28:16.195Z,2.80
2018-02-24T16:30:44.531Z,2.30
2018-02-24T16:33:12.094Z,2.57
2018-02-24T16:35:39.970Z,2.33
2018-02-24T16:38:07.559Z,3.13
2018-02-24T16:40:35.887Z,2.67
2018-02-24T16:43:03.607Z,2.40
2018-02-24T16:45:31.958Z,2.27
2018-02-24T16:47:59.922Z,1.97
2018-02-24T16:50:27.523Z,2.13
2018-02-24T16:52:55.090Z,2.10
2018-02-24T16:55:22.658Z,2.93
2018-02-24T16:57:50.547Z,2.33
2018-02-24T17:00:18.124Z,3.10
2018-02-24T17:02:45.692Z,7.03
2018-02-24T17:05:14.040Z,8.43
2018-02-24T17:07:41.921Z,4.00
2018-02-24T17:10:09.568Z,2.40
2018-02-24T17:12:37.133Z,2.80
2018-02-24T17:15:04.711Z,3.17
2018-02-24T17:17:33.809Z,3.67
2018-02-24T17:20:02.166Z,2.93
2018-02-24T17:22:29.788Z,2.90
2018-02-24T17:24:57.364Z,2.20
2018-02-24T17:27:25.075Z,3.13
2018-02-24T17:29:53.683Z,3.30
2018-02-24T17:32:21.264Z,3.27
2018-02-24T17:34:48.842Z,2.83
2018-02-24T17:37:17.405Z,2.67
2018-02-24T17:39:44.977Z,2.70
2018-02-24T17:42:12.569Z,2.50
2018-02-24T17:44:40.465Z,2.20
2018-02-24T17:47:08.031Z,4.83
2018-02-24T17:49:35.650Z,2.50
2018-02-24T17:52:03.271Z,2.60
2018-02-24T17:54:30.840Z,2.40
2018-02-24T17:56:58.464Z,2.40
2018-02-24T17:59:26.056Z,2.77
2018-02-24T18:01:53.651Z,2.50
2018-02-24T18:04:22.463Z,2.53
2018-02-24T18:06:50.802Z,2.47
2018-02-24T18:09:18.988Z,3.87
2018-02-24T18:11:46.937Z,4.90
2018-02-24T18:14:14.518Z,4.87
2018-02-24T18:16:42.856Z,3.80
2018-02-24T18:19:10.744Z,2.80
2018-02-24T18:21:38.354Z,2.57
2018-02-24T18:24:05.923Z,2.30
2018-02-24T18:26:33.801Z,2.07
2018-02-24T18:29:01.462Z,3.00
2018-02-24T18:31:29.034Z,2.70
2018-02-24T18:33:56.621Z,2.30
2018-02-24T18:36:24.310Z,2.53
2018-02-24T18:38:52.286Z,2.30
2018-02-24T18:41:20.596Z,3.07
2018-02-24T18:43:48.162Z,2.90
2018-02-24T18:46:16.036Z,2.30
2018-02-24T18:48:43.644Z,2.90
2018-02-24T18:51:11.256Z,2.70
2018-02-24T18:53:38.911Z,2.50
2018-02-24T18:56:06.492Z,6.17
2018-02-24T18:58:34.826Z,3.80
2018-02-24T19:01:02.584Z,4.20
2018-02-24T19:03:31.768Z,2.70
2018-02-24T19:05:59.380Z,2.60
2018-02-24T19:08:26.956Z,3.13
2018-02-24T19:10:55.277Z,3.50
2018-02-24T19:13:23.273Z,3.57
2018-02-24T19:15:50.850Z,3.90
2018-02-24T19:18:19.193Z,3.37
2018-02-24T19:20:46.791Z,2.90
2018-02-24T19:23:14.409Z,3.13
2018-02-24T19:25:41.974Z,3.07
2018-02-24T19:28:09.831Z,6.03
2018-02-24T19:30:37.402Z,3.50
2018-02-24T19:33:04.980Z,7.70
2018-02-24T19:35:32.857Z,6.07
2018-02-24T19:38:00.426Z,3.30
2018-02-24T19:40:28.765Z,3.83
2018-02-24T19:42:56.378Z,2.50
2018-02-24T19:45:23.953Z,3.43
2018-02-24T19:47:51.544Z,4.30
2018-02-24T19:50:19.145Z,4.10
2018-02-24T19:52:46.718Z,5.00
2018-02-24T19:55:14.331Z,4.10
2018-02-24T19:57:42.293Z,2.40
2018-02-24T20:00:09.876Z,2.80
2018-02-24T20:02:37.446Z,2.47
2018-02-24T20:05:06.085Z,2.43
2018-02-24T20:07:33.672Z,2.20
2018-02-24T20:10:01.234Z,2.70
2018-02-24T20:12:29.611Z,2.40
2018-02-24T20:14:57.950Z,2.40
2018-02-24T20:17:25.538Z,2.13
2018-02-24T20:19:53.154Z,2.40
2018-02-24T20:22:21.205Z,2.30
2018-02-24T20:24:49.516Z,1.80
2018-02-24T20:27:17.116Z,2.23
2018-02-24T20:29:45.778Z,2.00
2018-02-24T20:32:13.354Z,2.10
2018-02-24T20:34:41.694Z,1.90
2018-02-24T20:37:09.581Z,2.10
2018-02-24T20:39:37.366Z,2.40
2018-02-24T20:42:05.754Z,1.80
2018-02-24T20:44:34.123Z,2.00
2018-02-24T20:47:02.708Z,2.33
2018-02-24T20:49:31.046Z,2.63
2018-02-24T20:51:58.616Z,1.80
2018-02-24T20:54:26.236Z,2.10
2018-02-24T20:56:53.814Z,2.37
2018-02-24T20:59:21.407Z,2.07
2018-02-24T21:01:49.367Z,2.10
2018-02-24T21:04:17.723Z,1.80
2018-02-24T21:06:46.377Z,2.53
2018-02-24T21:09:14.131Z,2.13
2018-02-24T21:11:42.486Z,2.40
2018-02-24T21:14:10.162Z,2.53
2018-02-24T21:16:38.532Z,3.40
2018-02-24T21:19:06.877Z,3.27
2018-02-24T21:21:34.967Z,3.03
2018-02-24T21:24:02.545Z,2.93
2018-02-24T21:26:30.884Z,2.43
2018-02-24T21:28:58.483Z,2.53
2018-02-24T21:31:26.824Z,2.27
2018-02-24T21:33:54.406Z,2.73
2018-02-24T21:36:22.099Z,3.50
2018-02-24T21:38:49.673Z,4.57
2018-02-24T21:41:17.244Z,2.27
2018-02-24T21:43:44.849Z,2.43
2018-02-24T21:46:13.178Z,2.30
2018-02-24T21:48:40.749Z,2.00
2018-02-24T21:51:08.709Z,2.50
2018-02-24T21:53:36.291Z,2.23
2018-02-24T21:56:03.882Z,2.07
2018-02-24T21:58:32.518Z,1.93
2018-02-24T22:01:00.094Z,1.77
2018-02-24T22:03:27.749Z,1.90
2018-02-24T22:05:55.355Z,1.97
2018-02-24T22:08:22.945Z,1.90
2018-02-24T22:10:50.889Z,2.10
2018-02-24T22:13:18.508Z,2.37
2018-02-24T22:15:47.592Z,2.50
2018-02-24T22:18:15.225Z,2.17
2018-02-24T22:20:43.181Z,2.53
2018-02-24T22:23:10.725Z,2.77
2018-02-24T22:25:38.324Z,1.90
2018-02-24T22:28:05.948Z,2.13
2018-02-24T22:30:33.521Z,2.53
2018-02-24T22:33:01.085Z,2.30
2018-02-24T22:35:28.697Z,2.40
2018-02-24T22:37:57.034Z,1.83
2018-02-24T22:40:24.619Z,2.13
2018-02-24T22:42:52.240Z,2.50
2018-02-24T22:45:19.800Z,1.70
2018-02-24T22:47:53.625Z,2.37
2018-02-24T22:50:21.193Z,2.13
2018-02-24T22:52:48.779Z,2.07
2018-02-24T22:55:17.440Z,2.20
2018-02-24T22:57:45.016Z,2.50
2018-02-24T23:00:13.337Z,2.07
2018-02-24T23:02:40.932Z,1.90
2018-02-24T23:05:08.661Z,2.47
2018-02-24T23:07:36.238Z,2.07
2018-02-24T23:10:03.905Z,2.33
2018-02-24T23:12:31.765Z,2.23
2018-02-24T23:14:59.332Z,2.13
2018-02-24T23:17:27.024Z,2.00
2018-02-24T23:19:55.409Z,2.63
2018-02-24T23:22:23.814Z,2.27
2018-02-24T23:24:51.391Z,2.10
2018-02-24T23:27:19.000Z,3.03
2018-02-24T23:29:47.430Z,2.10
2018-02-24T23:32:15.009Z,2.80
2018-02-24T23:34:42.600Z,2.93
2018-02-24T23:37:10.922Z,2.90
2018-02-24T23:39:38.471Z,2.73
2018-02-24T23:42:06.152Z,2.80
2018-02-24T23:44:33.716Z,2.57
2018-02-24T23:47:01.279Z,3.00
2018-02-24T23:49:28.890Z,2.50
2018-02-24T23:51:56.484Z,2.60
2018-02-24T23:54:24.107Z,2.57
2018-02-24T23:56:51.671Z,2.80
2018-02-24T23:59:19.244Z,2.53
